createdAt,value
2023-03-26T00:02:09.594Z,6.90
2023-03-26T00:04:38.655Z,6.80
2023-03-26T00:07:07.140Z,6.90
2023-03-26T00:09:35.622Z,7.00
2023-03-26T00:12:06.255Z,7.20
2023-03-26T00:14:35.759Z,6.90
2023-03-26T00:17:04.763Z,5.90
2023-03-26T00:19:34.260Z,5.90
2023-03-26T00:22:03.796Z,5.80
2023-03-26T00:24:32.355Z,5.60
2023-03-26T00:27:01.341Z,5.80
2023-03-26T00:29:33.619Z,5.80
2023-03-26T00:32:02.493Z,5.30
2023-03-26T00:34:31.091Z,5.40
2023-03-26T00:37:02.561Z,6.00
2023-03-26T00:39:36.150Z,5.10
2023-03-26T00:42:07.027Z,5.40
2023-03-26T00:44:36.085Z,5.40
2023-03-26T00:47:04.577Z,4.90
2023-03-26T00:49:33.560Z,5.00
2023-03-26T00:52:03.386Z,4.80
2023-03-26T00:54:32.176Z,4.70
2023-03-26T00:57:00.575Z,5.70
2023-03-26T00:59:30.530Z,5.30
2023-03-26T01:01:59.110Z,4.40
2023-03-26T01:04:31.024Z,4.90
2023-03-26T01:07:22.752Z,4.50
2023-03-26T01:09:51.937Z,5.00
2023-03-26T01:12:24.187Z,4.30
2023-03-26T01:14:56.783Z,4.50
2023-03-26T01:17:25.655Z,5.00
2023-03-26T01:20:32.362Z,4.70
2023-03-26T01:23:05.616Z,4.60
2023-03-26T01:25:43.652Z,4.10
2023-03-26T01:28:12.952Z,4.10
2023-03-26T01:30:58.780Z,4.10
2023-03-26T01:34:12.657Z,4.10
2023-03-26T01:37:06.477Z,4.30
2023-03-26T01:39:43.145Z,4.30
2023-03-26T01:42:16.301Z,4.10
2023-03-26T01:44:48.707Z,4.70
2023-03-26T01:47:18.601Z,4.10
2023-03-26T01:49:47.173Z,4.20
2023-03-26T01:52:21.469Z,4.20
2023-03-26T01:54:50.619Z,4.10
2023-03-26T01:57:30.677Z,4.30
2023-03-26T02:00:36.635Z,3.80
2023-03-26T02:03:21.365Z,4.20
2023-03-26T02:06:07.808Z,4.50
2023-03-26T02:08:42.222Z,4.40
2023-03-26T02:11:16.478Z,4.60
2023-03-26T02:13:46.836Z,4.10
2023-03-26T02:16:17.681Z,4.40
2023-03-26T02:18:51.921Z,4.80
2023-03-26T02:21:23.117Z,4.90
2023-03-26T02:24:03.345Z,4.40
2023-03-26T02:26:35.801Z,4.70
2023-03-26T02:29:14.529Z,4.20
2023-03-26T02:31:44.666Z,4.60
2023-03-26T02:34:13.226Z,4.30
2023-03-26T02:36:47.389Z,4.20
2023-03-26T02:39:15.880Z,4.20
2023-03-26T02:41:49.613Z,4.00
2023-03-26T02:44:18.215Z,3.80
2023-03-26T02:47:02.270Z,4.10
2023-03-26T02:49:49.388Z,3.40
2023-03-26T02:52:36.470Z,3.10
2023-03-26T02:55:05.700Z,3.10
2023-03-26T02:57:35.010Z,2.70
2023-03-26T03:00:09.261Z,2.50
2023-03-26T03:02:41.478Z,2.60
2023-03-26T03:05:31.843Z,2.70
2023-03-26T03:08:20.846Z,2.50
2023-03-26T03:11:23.935Z,2.80
2023-03-26T03:13:54.329Z,2.70
2023-03-26T03:16:31.460Z,2.90
2023-03-26T03:19:06.480Z,3.00
2023-03-26T03:21:40.983Z,3.10
2023-03-26T03:24:11.776Z,3.30
2023-03-26T03:26:48.598Z,2.90
2023-03-26T03:29:32.983Z,2.70
2023-03-26T03:32:14.407Z,2.30
2023-03-26T03:34:46.590Z,2.50
2023-03-26T03:37:14.901Z,2.50
2023-03-26T03:39:48.246Z,2.60
2023-03-26T03:42:19.149Z,2.60
2023-03-26T03:44:47.760Z,2.70
2023-03-26T03:47:36.524Z,2.70
2023-03-26T03:50:07.116Z,2.90
2023-03-26T03:52:36.061Z,2.90
2023-03-26T03:55:05.734Z,2.70
2023-03-26T03:57:54.629Z,3.20
2023-03-26T04:03:06.738Z,3.60
2023-03-26T04:05:36.833Z,3.00
2023-03-26T04:08:05.463Z,2.80
2023-03-26T04:11:00.736Z,3.10
2023-03-26T04:13:48.701Z,2.70
2023-03-26T04:16:56.083Z,2.70
2023-03-26T04:19:25.089Z,2.80
2023-03-26T04:21:54.700Z,3.10
2023-03-26T04:24:24.887Z,2.90
2023-03-26T04:27:25.767Z,3.20
2023-03-26T04:29:54.760Z,3.40
2023-03-26T04:32:29.995Z,3.40
2023-03-26T04:35:03.963Z,3.60
2023-03-26T04:37:39.971Z,4.00
2023-03-26T04:40:20.980Z,4.20
2023-03-26T04:43:00.181Z,3.80
2023-03-26T04:46:03.609Z,4.00
2023-03-26T04:48:36.862Z,3.80
2023-03-26T04:51:10.310Z,4.10
2023-03-26T04:53:38.758Z,4.30
2023-03-26T04:57:06.631Z,4.00
2023-03-26T04:59:48.419Z,3.80
2023-03-26T05:02:18.338Z,4.50
2023-03-26T05:04:50.857Z,4.00
2023-03-26T05:07:25.548Z,4.20
2023-03-26T05:09:58.330Z,4.40
2023-03-26T05:12:37.147Z,4.40
2023-03-26T05:15:12.705Z,4.10
2023-03-26T05:17:53.154Z,4.20
2023-03-26T05:20:30.504Z,4.70
2023-03-26T05:22:59.370Z,5.00
2023-03-26T05:25:30.791Z,4.50
2023-03-26T05:27:59.584Z,4.80
2023-03-26T05:30:33.188Z,4.80
2023-03-26T05:33:03.150Z,5.00
2023-03-26T05:35:38.276Z,5.00
2023-03-26T05:38:09.499Z,4.50
2023-03-26T05:40:38.594Z,5.10
2023-03-26T05:43:08.500Z,4.80
2023-03-26T05:45:48.914Z,4.90
2023-03-26T05:48:29.121Z,5.10
2023-03-26T05:50:59.075Z,4.00
2023-03-26T05:53:28.639Z,5.20
2023-03-26T05:56:13.320Z,5.20
2023-03-26T05:59:00.830Z,5.10
2023-03-26T06:01:35.758Z,4.70
2023-03-26T06:04:16.146Z,5.10
2023-03-26T06:07:11.849Z,5.00
2023-03-26T06:09:44.013Z,5.00
2023-03-26T06:12:13.116Z,4.70
2023-03-26T06:14:43.095Z,5.20
2023-03-26T06:17:19.758Z,5.10
2023-03-26T06:20:09.246Z,5.00
2023-03-26T06:22:41.865Z,4.80
2023-03-26T06:25:21.286Z,4.90
2023-03-26T06:27:57.550Z,5.50
2023-03-26T06:30:49.195Z,4.60
2023-03-26T06:33:30.466Z,5.90
2023-03-26T06:36:01.179Z,5.10
2023-03-26T06:38:29.992Z,5.30
2023-03-26T06:41:07.382Z,4.60
2023-03-26T06:44:05.665Z,4.50
2023-03-26T06:50:01.547Z,3.60
2023-03-26T06:53:03.083Z,2.90
2023-03-26T06:55:50.253Z,2.50
2023-03-26T06:58:40.000Z,2.80
2023-03-26T07:01:27.612Z,3.10
2023-03-26T07:04:14.856Z,3.30
2023-03-26T07:07:01.944Z,3.20
2023-03-26T07:09:49.575Z,3.30
2023-03-26T07:12:42.630Z,2.90
2023-03-26T07:15:43.806Z,2.60
2023-03-26T07:18:24.760Z,2.50
2023-03-26T07:20:55.663Z,2.50
2023-03-26T07:23:25.732Z,2.50
2023-03-26T07:25:59.421Z,2.60
2023-03-26T07:29:11.323Z,2.90
2023-03-26T07:32:14.108Z,2.90
2023-03-26T07:35:17.786Z,3.10
2023-03-26T07:38:29.718Z,3.20
2023-03-26T07:41:28.817Z,3.80
2023-03-26T07:44:25.874Z,3.20
2023-03-26T07:47:11.246Z,3.00
2023-03-26T07:50:00.605Z,2.90
2023-03-26T07:52:49.738Z,3.30
2023-03-26T07:55:31.723Z,3.10
2023-03-26T07:58:44.915Z,3.10
2023-03-26T08:01:53.573Z,3.70
2023-03-26T08:04:48.683Z,3.90
2023-03-26T08:08:05.459Z,3.70
2023-03-26T08:11:26.679Z,4.00
2023-03-26T08:14:08.061Z,3.80
2023-03-26T08:16:54.695Z,10.50
2023-03-26T08:19:49.405Z,14.50
2023-03-26T08:22:18.051Z,4.50
2023-03-26T08:25:25.773Z,5.10
2023-03-26T08:28:41.149Z,5.60
2023-03-26T08:31:13.981Z,6.90
2023-03-26T08:33:42.401Z,3.30
2023-03-26T08:36:11.189Z,6.10
2023-03-26T08:38:39.674Z,3.70
2023-03-26T08:41:11.377Z,3.20
2023-03-26T08:46:31.688Z,3.20
2023-03-26T08:49:16.093Z,4.60
2023-03-26T08:52:12.536Z,1.60
2023-03-26T08:55:03.855Z,1.50
2023-03-26T08:57:46.880Z,1.40
2023-03-26T09:00:37.257Z,1.40
2023-03-26T09:03:31.282Z,1.80
2023-03-26T09:05:59.943Z,1.50
2023-03-26T09:08:54.339Z,1.50
2023-03-26T09:11:43.003Z,1.10
2023-03-26T09:14:36.972Z,1.10
2023-03-26T09:17:33.250Z,1.30
2023-03-26T09:20:19.304Z,1.30
2023-03-26T09:22:50.240Z,1.30
2023-03-26T09:26:13.198Z,1.30
2023-03-26T09:28:53.973Z,1.30
2023-03-26T09:31:45.919Z,1.60
2023-03-26T09:37:57.429Z,1.60
2023-03-26T09:40:45.055Z,1.60
2023-03-26T09:43:36.699Z,2.00
2023-03-26T09:46:08.383Z,1.70
2023-03-26T09:49:12.350Z,1.40
2023-03-26T09:51:49.074Z,1.50
2023-03-26T09:54:48.684Z,1.50
2023-03-26T09:57:53.991Z,1.60
2023-03-26T10:00:53.715Z,1.50
2023-03-26T10:03:43.992Z,1.40
2023-03-26T10:06:31.830Z,1.40
2023-03-26T10:09:38.826Z,1.40
2023-03-26T10:12:23.888Z,1.60
2023-03-26T10:15:10.017Z,1.60
2023-03-26T10:17:57.456Z,2.60
2023-03-26T10:20:29.373Z,1.60
2023-03-26T10:23:22.596Z,1.60
2023-03-26T10:26:17.145Z,1.60
2023-03-26T10:29:01.820Z,1.40
2023-03-26T10:31:40.721Z,1.50
2023-03-26T10:34:29.706Z,1.50
2023-03-26T10:37:22.234Z,1.50
2023-03-26T10:40:18.872Z,1.60
2023-03-26T10:43:14.386Z,1.60
2023-03-26T10:46:05.179Z,1.60
2023-03-26T10:48:48.153Z,1.80
2023-03-26T10:51:44.932Z,1.70
2023-03-26T10:54:32.286Z,1.60
2023-03-26T10:57:03.282Z,1.60
2023-03-26T10:59:32.324Z,2.00
2023-03-26T11:02:21.288Z,1.80
2023-03-26T11:05:39.878Z,1.80
2023-03-26T11:08:31.647Z,1.70
2023-03-26T11:11:27.296Z,1.90
2023-03-26T11:14:01.838Z,2.20
2023-03-26T11:16:57.750Z,2.30
2023-03-26T11:19:43.436Z,1.80
2023-03-26T11:22:32.482Z,1.90
2023-03-26T11:25:36.622Z,1.60
2023-03-26T11:28:36.440Z,1.80
2023-03-26T11:31:19.803Z,1.70
2023-03-26T11:33:53.050Z,1.50
2023-03-26T11:36:32.399Z,1.70
2023-03-26T11:39:05.904Z,1.80
2023-03-26T11:41:35.310Z,2.00
2023-03-26T11:44:35.024Z,1.50
2023-03-26T11:47:10.349Z,1.90
2023-03-26T11:49:42.656Z,1.60
2023-03-26T11:52:12.641Z,1.50
2023-03-26T11:54:41.086Z,2.70
2023-03-26T11:57:33.540Z,1.60
2023-03-26T12:00:16.509Z,1.80
2023-03-26T12:02:47.581Z,1.80
2023-03-26T12:05:21.892Z,1.90
2023-03-26T12:07:57.855Z,2.00
2023-03-26T12:10:38.356Z,2.00
2023-03-26T12:13:22.330Z,2.00
2023-03-26T12:15:51.219Z,2.10
2023-03-26T12:18:28.939Z,1.90
2023-03-26T12:21:08.098Z,2.10
2023-03-26T12:23:39.402Z,2.00
2023-03-26T12:26:21.002Z,2.10
2023-03-26T12:28:51.637Z,2.20
2023-03-26T12:31:20.595Z,2.00
2023-03-26T12:34:14.293Z,1.90
2023-03-26T12:37:01.210Z,2.30
2023-03-26T12:40:07.133Z,1.90
2023-03-26T12:44:51.243Z,2.00
2023-03-26T12:45:28.236Z,2.20
2023-03-26T12:48:03.428Z,2.00
2023-03-26T12:50:58.798Z,1.80
2023-03-26T12:53:46.388Z,1.90
2023-03-26T12:56:27.568Z,2.00
2023-03-26T12:59:22.369Z,1.70
2023-03-26T13:01:58.854Z,1.70
2023-03-26T13:05:06.228Z,1.90
2023-03-26T13:08:00.632Z,1.80
2023-03-26T13:11:01.876Z,1.80
2023-03-26T13:13:33.233Z,1.50
2023-03-26T13:16:29.136Z,1.40
2023-03-26T13:19:07.567Z,1.50
2023-03-26T13:22:01.825Z,1.80
2023-03-26T13:24:39.252Z,1.80
2023-03-26T13:27:15.217Z,1.60
2023-03-26T13:30:09.700Z,1.80
2023-03-26T13:32:48.371Z,1.80
2023-03-26T13:35:30.589Z,1.40
2023-03-26T13:38:20.415Z,1.40
2023-03-26T13:41:04.150Z,1.40
2023-03-26T13:44:05.603Z,1.70
2023-03-26T13:46:43.667Z,1.40
2023-03-26T13:49:37.517Z,1.60
2023-03-26T13:52:18.261Z,1.60
2023-03-26T13:55:02.726Z,1.60
2023-03-26T13:57:40.621Z,1.60
2023-03-26T14:00:57.085Z,1.50
2023-03-26T14:03:58.234Z,1.50
2023-03-26T14:06:57.763Z,1.50
2023-03-26T14:09:43.371Z,1.50
2023-03-26T14:12:44.941Z,1.60
2023-03-26T14:15:35.020Z,1.70
2023-03-26T14:18:31.770Z,1.50
2023-03-26T14:21:12.223Z,1.40
2023-03-26T14:24:13.579Z,1.30
2023-03-26T14:27:22.306Z,1.30
2023-03-26T14:30:11.586Z,1.40
2023-03-26T14:33:10.834Z,1.60
2023-03-26T14:36:22.679Z,1.60
2023-03-26T14:39:00.686Z,1.40
2023-03-26T14:41:58.862Z,1.50
2023-03-26T14:44:48.040Z,1.40
2023-03-26T14:47:19.285Z,1.30
2023-03-26T14:50:14.000Z,1.50
2023-03-26T14:52:52.026Z,1.50
2023-03-26T14:55:45.768Z,1.30
2023-03-26T14:58:48.446Z,1.40
2023-03-26T15:01:50.941Z,1.40
2023-03-26T15:04:58.836Z,1.60
2023-03-26T15:07:44.769Z,1.50
2023-03-26T15:10:22.971Z,1.40
2023-03-26T15:13:27.030Z,1.40
2023-03-26T15:16:07.858Z,1.40
2023-03-26T15:19:18.905Z,1.60
2023-03-26T15:22:06.195Z,1.40
2023-03-26T15:25:26.322Z,1.80
2023-03-26T15:28:16.824Z,1.50
2023-03-26T15:31:37.254Z,1.50
2023-03-26T15:34:30.585Z,1.50
2023-03-26T15:37:01.838Z,1.60
2023-03-26T15:42:55.121Z,1.30
2023-03-26T15:45:41.268Z,1.50
2023-03-26T15:48:13.141Z,1.40
2023-03-26T15:51:13.200Z,1.60
2023-03-26T15:54:02.879Z,1.50
2023-03-26T15:56:43.270Z,1.80
2023-03-26T15:59:50.061Z,1.90
2023-03-26T16:02:40.276Z,1.70
2023-03-26T16:05:36.974Z,1.80
2023-03-26T16:08:41.749Z,1.70
2023-03-26T16:11:12.854Z,1.90
2023-03-26T16:14:12.661Z,1.60
2023-03-26T16:16:53.081Z,1.70
2023-03-26T16:19:22.726Z,1.80
2023-03-26T16:22:42.547Z,1.70
2023-03-26T16:25:52.981Z,2.20
2023-03-26T16:28:29.181Z,1.90
2023-03-26T16:31:37.468Z,1.90
2023-03-26T16:34:09.426Z,1.80
2023-03-26T16:36:46.425Z,2.00
2023-03-26T16:39:22.885Z,2.20
2023-03-26T16:42:06.022Z,2.30
2023-03-26T16:44:48.417Z,2.40
2023-03-26T16:47:25.236Z,2.20
2023-03-26T16:50:08.198Z,2.30
2023-03-26T16:52:59.016Z,2.30
2023-03-26T16:55:58.975Z,2.40
2023-03-26T16:58:38.286Z,2.50
2023-03-26T17:01:09.012Z,2.20
2023-03-26T17:03:59.743Z,2.20
2023-03-26T17:07:09.151Z,2.30
2023-03-26T17:09:38.249Z,2.60
2023-03-26T17:12:51.382Z,2.70
2023-03-26T17:15:41.466Z,2.60
2023-03-26T17:18:13.067Z,2.40
2023-03-26T17:23:31.182Z,2.60
2023-03-26T17:26:36.020Z,2.60
2023-03-26T17:29:22.940Z,2.50
2023-03-26T17:32:00.785Z,2.70
2023-03-26T17:34:38.430Z,2.80
2023-03-26T17:37:19.140Z,3.00
2023-03-26T17:39:47.537Z,3.60
2023-03-26T17:42:26.817Z,3.40
2023-03-26T17:44:58.882Z,3.50
2023-03-26T17:47:30.765Z,3.30
2023-03-26T17:52:55.464Z,3.40
2023-03-26T17:55:31.500Z,3.40
2023-03-26T17:58:03.077Z,3.40
2023-03-26T18:00:43.714Z,2.90
2023-03-26T18:03:24.471Z,3.50
2023-03-26T18:05:57.623Z,3.50
2023-03-26T18:08:52.514Z,3.70
2023-03-26T18:11:42.291Z,3.10
2023-03-26T18:14:29.716Z,3.60
2023-03-26T18:17:01.030Z,3.70
2023-03-26T18:19:32.105Z,3.50
2023-03-26T18:22:07.756Z,4.40
2023-03-26T18:24:41.388Z,4.10
2023-03-26T18:27:16.692Z,3.80
2023-03-26T18:30:16.526Z,3.90
2023-03-26T18:32:52.940Z,3.80
2023-03-26T18:35:23.344Z,4.30
2023-03-26T18:37:57.393Z,4.60
2023-03-26T18:40:33.262Z,3.80
2023-03-26T18:43:02.178Z,3.70
2023-03-26T18:45:37.043Z,3.90
2023-03-26T18:48:08.052Z,3.60
2023-03-26T18:50:42.203Z,3.70
2023-03-26T18:53:22.008Z,3.70
2023-03-26T18:55:52.175Z,3.70
2023-03-26T18:58:26.290Z,3.70
2023-03-26T19:01:00.858Z,3.70
2023-03-26T19:03:35.795Z,3.90
2023-03-26T19:06:10.357Z,4.00
2023-03-26T19:08:42.203Z,4.00
2023-03-26T19:11:12.412Z,4.20
2023-03-26T19:13:44.377Z,3.70
2023-03-26T19:16:26.735Z,3.70
2023-03-26T19:18:55.264Z,5.10
2023-03-26T19:21:24.034Z,4.30
2023-03-26T19:23:54.586Z,4.80
2023-03-26T19:26:23.681Z,5.50
2023-03-26T19:28:56.373Z,3.90
2023-03-26T19:31:30.475Z,5.20
2023-03-26T19:34:15.032Z,3.80
2023-03-26T19:37:02.257Z,4.00
2023-03-26T19:39:42.889Z,3.90
2023-03-26T19:42:18.275Z,5.50
2023-03-26T19:44:46.992Z,3.90
2023-03-26T19:47:43.137Z,3.80
2023-03-26T19:50:33.494Z,3.70
2023-03-26T19:53:17.025Z,3.70
2023-03-26T19:56:13.578Z,5.20
2023-03-26T19:58:43.217Z,7.20
2023-03-26T20:01:23.988Z,7.00
2023-03-26T20:03:58.121Z,6.30
2023-03-26T20:06:42.581Z,6.90
2023-03-26T20:09:13.890Z,8.60
2023-03-26T20:11:42.572Z,9.20
2023-03-26T20:14:17.321Z,5.70
2023-03-26T20:16:46.334Z,10.90
2023-03-26T20:19:15.482Z,13.30
2023-03-26T20:21:46.005Z,9.30
2023-03-26T20:24:17.245Z,15.80
2023-03-26T20:26:46.894Z,20.60
2023-03-26T20:29:16.335Z,17.70
2023-03-26T20:31:45.472Z,11.30
2023-03-26T20:34:20.046Z,12.00
2023-03-26T20:36:54.539Z,10.10
2023-03-26T20:39:24.470Z,8.20
2023-03-26T20:41:54.641Z,7.60
2023-03-26T20:44:23.428Z,6.70
2023-03-26T20:46:52.861Z,7.90
2023-03-26T20:49:22.380Z,8.20
2023-03-26T20:51:51.333Z,8.70
2023-03-26T20:54:25.446Z,10.10
2023-03-26T20:56:54.843Z,9.10
2023-03-26T20:59:27.134Z,8.70
2023-03-26T21:01:57.917Z,7.80
2023-03-26T21:04:27.365Z,7.10
2023-03-26T21:07:07.147Z,6.90
2023-03-26T21:09:40.519Z,7.20
2023-03-26T21:12:29.779Z,9.10
2023-03-26T21:14:58.975Z,8.70
2023-03-26T21:17:28.429Z,10.30
2023-03-26T21:20:00.644Z,7.30
2023-03-26T21:22:38.543Z,4.80
2023-03-26T21:25:23.008Z,4.00
2023-03-26T21:28:28.894Z,4.00
2023-03-26T21:31:06.509Z,3.70
2023-03-26T21:33:35.140Z,3.30
2023-03-26T21:36:04.637Z,3.40
2023-03-26T21:38:34.325Z,3.60
2023-03-26T21:41:03.879Z,3.60
2023-03-26T21:43:32.756Z,3.20
2023-03-26T21:46:01.707Z,3.40
2023-03-26T21:48:30.641Z,3.60
2023-03-26T21:51:03.690Z,3.40
2023-03-26T21:53:34.824Z,3.40
2023-03-26T21:56:23.429Z,3.70
2023-03-26T21:59:03.354Z,3.60
2023-03-26T22:01:51.347Z,3.30
2023-03-26T22:04:32.300Z,3.60
2023-03-26T22:07:16.812Z,3.20
2023-03-26T22:09:45.855Z,3.60
2023-03-26T22:12:14.227Z,3.80
2023-03-26T22:14:42.824Z,9.10
2023-03-26T22:17:11.807Z,11.20
2023-03-26T22:19:40.494Z,6.90
2023-03-26T22:22:09.080Z,4.40
2023-03-26T22:24:38.604Z,3.50
2023-03-26T22:27:08.092Z,3.80
2023-03-26T22:29:36.678Z,3.60
2023-03-26T22:32:05.772Z,3.80
2023-03-26T22:34:35.197Z,3.30
2023-03-26T22:37:05.902Z,3.40
2023-03-26T22:39:34.420Z,3.80
2023-03-26T22:42:04.001Z,3.90
2023-03-26T22:44:32.489Z,5.10
2023-03-26T22:47:01.681Z,3.90
2023-03-26T22:49:31.704Z,4.10
2023-03-26T22:52:00.183Z,3.50
2023-03-26T22:54:28.667Z,4.00
2023-03-26T22:56:57.189Z,3.80
2023-03-26T22:59:26.140Z,3.80
2023-03-26T23:01:54.933Z,4.30
2023-03-26T23:04:31.637Z,4.10
2023-03-26T23:07:01.121Z,4.20
2023-03-26T23:09:30.028Z,3.80
2023-03-26T23:11:58.654Z,3.90
2023-03-26T23:14:28.822Z,3.90
2023-03-26T23:16:57.734Z,3.90
2023-03-26T23:19:26.601Z,4.40
2023-03-26T23:21:55.072Z,4.20
2023-03-26T23:24:26.703Z,3.80
2023-03-26T23:26:55.829Z,4.40
2023-03-26T23:29:25.440Z,3.70
2023-03-26T23:31:54.978Z,3.50
2023-03-26T23:34:23.830Z,6.80
2023-03-26T23:36:55.179Z,5.20
2023-03-26T23:39:25.913Z,4.50
2023-03-26T23:41:54.701Z,4.30
2023-03-26T23:44:23.698Z,4.10
2023-03-26T23:46:58.110Z,4.30
2023-03-26T23:49:27.219Z,4.70
2023-03-26T23:51:55.592Z,4.70
2023-03-26T23:54:25.925Z,5.00
2023-03-26T23:56:55.172Z,4.70
2023-03-26T23:59:24.215Z,3.50
